Terminal Aerodrome Forecast
Issued by NWS Brownsville, TX

Home | Current Version | Previous Version | Text Only | Print | Product List | Glossary On
Versions: 1 2 3 4 5 6 7 8 9 10 11 12 13 14 15 16 17 18 19 20 21 22 23 24 25
318
FTUS44 KBRO 300704 AAA
TAFBRO
TAF AMD
KBRO 300704Z 3007/0106 33007KT P6SM FEW030 BKN040 OVC050
     FM300800 34022G30KT P6SM SCT025 OVC050
     FM301200 34015G22KT P6SM BKN050
     FM301500 36012G19KT P6SM SKC
     FM010000 05005KT P6SM SKC=

USA.gov is the U.S. government's official web portal to all federal, state and local government web resources and services.